createdAt,value
2019-02-20T00:00:04.878Z,101351.41
2019-02-20T00:02:33.816Z,101349.19
2019-02-20T00:05:02.372Z,101351.03
2019-02-20T00:07:30.936Z,101349.88
2019-02-20T00:09:59.788Z,101358.17
2019-02-20T00:12:28.378Z,101358.17
2019-02-20T00:14:56.952Z,101357.73
2019-02-20T00:17:25.534Z,101357.70
2019-02-20T00:19:54.167Z,101357.36
2019-02-20T00:22:22.730Z,101357.97
2019-02-20T00:24:51.290Z,101358.30
2019-02-20T00:27:19.913Z,101353.71
2019-02-20T00:29:48.462Z,101357.28
2019-02-20T00:32:17.031Z,101353.85
2019-02-20T00:34:45.600Z,101362.11
2019-02-20T00:37:14.158Z,101356.44
2019-02-20T00:39:42.760Z,101356.83
2019-02-20T00:42:11.338Z,101362.28
2019-02-20T00:44:44.230Z,101363.43
2019-02-20T00:47:14.434Z,101365.27
2019-02-20T00:49:43.264Z,101368.94
2019-02-20T00:52:16.126Z,101366.69
2019-02-20T00:54:44.695Z,101363.59
2019-02-20T00:57:13.265Z,101374.89
2019-02-20T00:59:41.844Z,101371.32
2019-02-20T01:02:10.706Z,101383.97
2019-02-20T01:04:39.292Z,101383.97
2019-02-20T01:07:07.874Z,101386.68
2019-02-20T01:09:36.476Z,101383.48
2019-02-20T01:12:05.221Z,101382.50
2019-02-20T01:14:33.775Z,101380.22
2019-02-20T01:17:02.785Z,101386.41
2019-02-20T01:19:31.376Z,101382.91
2019-02-20T01:22:00.147Z,101382.80
2019-02-20T01:24:28.694Z,101389.27
2019-02-20T01:26:57.275Z,101389.94
2019-02-20T01:29:25.858Z,101388.59
2019-02-20T01:31:54.426Z,101388.89
2019-02-20T01:34:22.972Z,101384.02
2019-02-20T01:36:51.540Z,101375.87
2019-02-20T01:39:20.089Z,101382.23
2019-02-20T01:41:48.698Z,101379.51
2019-02-20T01:44:17.235Z,101374.17
2019-02-20T01:46:45.796Z,101370.70
2019-02-20T01:49:14.384Z,101372.51
2019-02-20T01:51:44.963Z,101369.89
2019-02-20T01:54:13.264Z,101363.27
2019-02-20T01:56:41.819Z,101364.08
2019-02-20T01:59:10.386Z,101377.71
2019-02-20T02:01:38.976Z,101370.61
2019-02-20T02:04:07.540Z,101370.78
2019-02-20T02:06:36.123Z,101365.20
2019-02-20T02:09:06.986Z,101367.79
2019-02-20T02:11:35.570Z,101368.30
2019-02-20T02:14:04.327Z,101375.67
2019-02-20T02:16:32.906Z,101365.00
2019-02-20T02:19:01.533Z,101363.98
2019-02-20T02:21:30.083Z,101363.30
2019-02-20T02:23:58.684Z,101360.86
2019-02-20T02:26:27.232Z,101369.21
2019-02-20T02:28:55.782Z,101362.59
2019-02-20T02:31:24.333Z,101365.11
2019-02-20T02:33:53.900Z,101369.48
2019-02-20T02:36:22.456Z,101377.71
2019-02-20T02:38:51.022Z,101375.36
2019-02-20T02:41:19.577Z,101381.72
2019-02-20T02:43:48.138Z,101375.02
2019-02-20T02:46:16.690Z,101372.51
2019-02-20T02:48:45.564Z,101375.87
2019-02-20T02:51:14.130Z,101375.87
2019-02-20T02:53:42.727Z,101382.02
2019-02-20T02:56:11.272Z,101382.29
2019-02-20T02:58:39.841Z,101383.02
2019-02-20T03:01:08.699Z,101380.14
2019-02-20T03:03:37.567Z,101380.14
2019-02-20T03:06:06.135Z,101381.73
2019-02-20T03:08:34.983Z,101386.39
2019-02-20T03:11:03.857Z,101377.14
2019-02-20T03:13:32.420Z,101377.14
2019-02-20T03:16:01.285Z,101377.19
2019-02-20T03:18:29.841Z,101377.19
2019-02-20T03:20:58.699Z,101388.80
2019-02-20T03:23:27.569Z,101393.52
2019-02-20T03:25:56.431Z,101389.05
2019-02-20T03:28:25.303Z,101395.72
2019-02-20T03:30:53.892Z,101395.72
2019-02-20T03:33:22.744Z,101397.30
2019-02-20T03:35:51.607Z,101397.30
2019-02-20T03:38:30.107Z,101414.00
2019-02-20T03:40:50.782Z,101408.92
2019-02-20T03:43:19.638Z,101400.88
2019-02-20T03:45:48.502Z,101416.88
2019-02-20T03:48:17.343Z,101414.28
2019-02-20T03:50:46.236Z,101418.35
2019-02-20T03:53:15.084Z,101418.35
2019-02-20T03:55:43.977Z,101417.48
2019-02-20T03:58:12.699Z,101418.77
2019-02-20T04:00:41.567Z,101419.55
2019-02-20T04:03:10.452Z,101419.55
2019-02-20T04:05:39.017Z,101423.63
2019-02-20T04:08:07.592Z,101423.62
2019-02-20T04:10:36.183Z,101423.62
2019-02-20T04:13:04.735Z,101419.52
2019-02-20T04:15:33.627Z,101412.87
2019-02-20T04:18:02.254Z,101417.91
2019-02-20T04:20:31.119Z,101415.91
2019-02-20T04:22:59.690Z,101417.73
2019-02-20T04:25:28.580Z,101417.58
2019-02-20T04:27:57.135Z,101421.94
2019-02-20T04:30:26.468Z,101416.98
2019-02-20T04:33:00.600Z,101419.80
2019-02-20T04:35:29.272Z,101421.81
2019-02-20T04:37:57.837Z,101416.77
2019-02-20T04:40:26.407Z,101423.80
2019-02-20T04:42:54.958Z,101430.41
2019-02-20T04:45:23.536Z,101425.25
2019-02-20T04:47:52.119Z,101428.44
2019-02-20T04:50:20.755Z,101432.90
2019-02-20T04:52:49.321Z,101420.53
2019-02-20T04:55:17.879Z,101424.03
2019-02-20T04:57:46.469Z,101428.21
2019-02-20T05:00:15.048Z,101428.89
2019-02-20T05:02:43.600Z,101434.74
2019-02-20T05:05:12.246Z,101427.34
2019-02-20T05:07:40.799Z,101426.86
2019-02-20T05:10:10.612Z,101429.67
2019-02-20T05:12:39.171Z,101429.27
2019-02-20T05:15:08.125Z,101436.89
2019-02-20T05:17:36.680Z,101434.30
2019-02-20T05:20:08.637Z,101432.26
2019-02-20T05:22:37.222Z,101430.88
2019-02-20T05:25:06.065Z,101432.33
2019-02-20T05:27:34.626Z,101436.03
2019-02-20T05:30:03.222Z,101436.89
2019-02-20T05:32:31.787Z,101439.47
2019-02-20T05:35:00.518Z,101438.48
2019-02-20T05:37:29.228Z,101434.17
2019-02-20T05:39:57.779Z,101443.35
2019-02-20T05:42:26.328Z,101444.88
2019-02-20T05:44:54.897Z,101446.95
2019-02-20T05:47:23.504Z,101441.48
2019-02-20T05:49:52.088Z,101442.61
2019-02-20T05:52:20.663Z,101446.83
2019-02-20T05:54:49.238Z,101460.28
2019-02-20T05:57:17.860Z,101456.30
2019-02-20T05:59:46.384Z,101458.11
2019-02-20T06:02:14.995Z,101462.62
2019-02-20T06:04:43.572Z,101455.83
2019-02-20T06:07:12.151Z,101464.44
2019-02-20T06:09:40.787Z,101466.88
2019-02-20T06:12:09.378Z,101467.05
2019-02-20T06:14:37.966Z,101464.16
2019-02-20T06:17:06.545Z,101466.34
2019-02-20T06:19:35.123Z,101468.99
2019-02-20T06:22:03.727Z,101466.58
2019-02-20T06:24:32.273Z,101474.53
2019-02-20T06:27:00.840Z,101488.07
2019-02-20T06:29:29.423Z,101484.80
2019-02-20T06:31:58.000Z,101493.27
2019-02-20T06:34:26.552Z,101497.28
2019-02-20T06:36:55.113Z,101501.30
2019-02-20T06:39:23.746Z,101499.87
2019-02-20T06:41:52.247Z,101498.85
2019-02-20T06:44:20.799Z,101502.87
2019-02-20T06:46:49.380Z,101500.08
2019-02-20T06:49:17.969Z,101499.98
2019-02-20T06:51:46.558Z,101498.37
2019-02-20T06:54:20.170Z,101509.06
2019-02-20T06:56:50.214Z,101512.63
2019-02-20T06:59:19.004Z,101506.37
2019-02-20T07:01:47.565Z,101513.45
2019-02-20T07:04:16.125Z,101508.98
2019-02-20T07:06:47.777Z,101511.71
2019-02-20T07:09:24.815Z,101512.69
2019-02-20T07:12:04.972Z,101509.52
2019-02-20T07:14:42.181Z,101521.13
2019-02-20T07:17:28.867Z,101523.41
2019-02-20T07:20:33.971Z,101523.06
2019-02-20T07:23:07.999Z,101529.67
2019-02-20T07:25:45.665Z,101536.38
2019-02-20T07:28:17.240Z,101536.51
2019-02-20T07:30:45.851Z,101537.50
2019-02-20T07:33:14.450Z,101538.48
2019-02-20T07:35:43.034Z,101546.58
2019-02-20T07:38:11.629Z,101555.25
2019-02-20T07:40:40.199Z,101555.90
2019-02-20T07:43:08.762Z,101565.73
2019-02-20T07:45:37.345Z,101573.30
2019-02-20T07:48:05.912Z,101574.08
2019-02-20T07:50:34.508Z,101578.33
2019-02-20T07:53:03.078Z,101577.72
2019-02-20T07:55:31.642Z,101575.78
2019-02-20T07:58:00.273Z,101577.34
2019-02-20T08:00:28.823Z,101585.55
2019-02-20T08:02:57.407Z,101596.58
2019-02-20T08:05:25.999Z,101594.84
2019-02-20T08:07:54.564Z,101599.73
2019-02-20T08:10:23.179Z,101587.95
2019-02-20T08:12:51.763Z,101592.05
2019-02-20T08:15:20.399Z,101595.52
2019-02-20T08:17:49.000Z,101606.00
2019-02-20T08:20:17.563Z,101602.16
2019-02-20T08:22:46.137Z,101608.07
2019-02-20T08:25:22.580Z,101608.02
2019-02-20T08:27:45.004Z,101616.91
2019-02-20T08:30:14.919Z,101614.02
2019-02-20T08:32:43.483Z,101622.73
2019-02-20T08:35:12.994Z,101626.95
2019-02-20T08:37:41.552Z,101628.55
2019-02-20T08:40:12.864Z,101634.64
2019-02-20T08:42:41.516Z,101643.47
2019-02-20T08:45:11.522Z,101634.00
2019-02-20T08:47:40.119Z,101640.00
2019-02-20T08:50:13.417Z,101638.37
2019-02-20T08:52:41.994Z,101647.09
2019-02-20T08:55:11.211Z,101651.34
2019-02-20T08:57:39.822Z,101651.45
2019-02-20T09:00:11.398Z,101655.87
2019-02-20T09:02:40.125Z,101655.58
2019-02-20T09:05:10.565Z,101662.67
2019-02-20T09:07:39.148Z,101663.09
2019-02-20T09:10:12.581Z,101662.06
2019-02-20T09:12:41.167Z,101666.22
2019-02-20T09:15:12.273Z,101668.70
2019-02-20T09:17:40.834Z,101670.77
2019-02-20T09:20:11.259Z,101677.77
2019-02-20T09:22:40.001Z,101671.80
2019-02-20T09:25:19.175Z,101684.61
2019-02-20T09:27:41.173Z,101679.52
2019-02-20T09:30:14.367Z,101684.45
2019-02-20T09:32:42.938Z,101681.07
2019-02-20T09:35:11.591Z,101688.78
2019-02-20T09:37:40.161Z,101685.69
2019-02-20T09:40:18.811Z,101688.24
2019-02-20T09:42:49.834Z,101692.17
2019-02-20T09:45:18.406Z,101693.67
2019-02-20T09:47:46.961Z,101689.54
2019-02-20T09:50:17.525Z,101693.09
2019-02-20T09:52:52.238Z,101692.83
2019-02-20T09:55:16.436Z,101688.17
2019-02-20T09:57:45.012Z,101686.05
2019-02-20T10:00:18.180Z,101692.95
2019-02-20T10:02:47.390Z,101700.11
2019-02-20T10:05:16.101Z,101704.59
2019-02-20T10:07:44.658Z,101709.62
2019-02-20T10:10:13.729Z,101709.88
2019-02-20T10:12:42.299Z,101711.33
2019-02-20T10:15:20.347Z,101705.83
2019-02-20T10:17:48.907Z,101707.92
2019-02-20T10:20:17.464Z,101718.50
2019-02-20T10:22:46.074Z,101710.63
2019-02-20T10:25:14.650Z,101695.97
2019-02-20T10:27:43.258Z,101696.47
2019-02-20T10:30:17.476Z,101698.73
2019-02-20T10:32:46.056Z,101712.15
2019-02-20T10:35:14.698Z,101718.16
2019-02-20T10:37:43.264Z,101723.20
2019-02-20T10:40:12.407Z,101718.10
2019-02-20T10:42:40.988Z,101718.10
2019-02-20T10:45:13.324Z,101734.80
2019-02-20T10:47:41.890Z,101731.41
2019-02-20T10:50:12.020Z,101727.92
2019-02-20T10:52:40.584Z,101729.07
2019-02-20T10:55:10.080Z,101725.31
2019-02-20T10:57:38.673Z,101717.19
2019-02-20T11:00:23.355Z,101709.73
2019-02-20T11:02:44.876Z,101719.70
2019-02-20T11:05:13.486Z,101724.98
2019-02-20T11:07:42.148Z,101724.98
2019-02-20T11:10:10.827Z,101719.44
2019-02-20T11:12:39.388Z,101713.36
2019-02-20T11:15:08.643Z,101715.54
2019-02-20T11:17:38.132Z,101717.02
2019-02-20T11:20:11.230Z,101713.67
2019-02-20T11:22:39.840Z,101711.31
2019-02-20T11:25:10.739Z,101704.08
2019-02-20T11:27:39.636Z,101704.08
2019-02-20T11:30:17.027Z,101704.81
2019-02-20T11:32:45.628Z,101707.97
2019-02-20T11:35:14.194Z,101707.47
2019-02-20T11:37:42.788Z,101700.11
2019-02-20T11:40:11.361Z,101700.11
2019-02-20T11:42:39.915Z,101703.55
2019-02-20T11:45:16.707Z,101705.56
2019-02-20T11:47:45.279Z,101701.22
2019-02-20T11:50:14.071Z,101707.27
2019-02-20T11:52:43.151Z,101707.27
2019-02-20T11:55:13.345Z,101702.28
2019-02-20T11:57:41.901Z,101695.33
2019-02-20T12:00:15.838Z,101693.70
2019-02-20T12:02:44.416Z,101690.59
2019-02-20T12:05:13.187Z,101699.11
2019-02-20T12:07:41.786Z,101699.11
2019-02-20T12:10:15.438Z,101694.87
2019-02-20T12:12:44.025Z,101693.70
2019-02-20T12:15:12.666Z,101693.70
2019-02-20T12:17:41.226Z,101695.66
2019-02-20T12:20:09.954Z,101695.66
2019-02-20T12:22:38.544Z,101694.03
2019-02-20T12:25:08.967Z,101694.36
2019-02-20T12:27:37.579Z,101697.44
2019-02-20T12:30:11.380Z,101702.28
2019-02-20T12:32:39.942Z,101710.82
2019-02-20T12:35:09.574Z,101709.69
2019-02-20T12:37:38.159Z,101702.66
2019-02-20T12:40:11.119Z,101702.50
2019-02-20T12:42:39.732Z,101700.92
2019-02-20T12:45:09.263Z,101704.73
2019-02-20T12:47:37.830Z,101709.85
2019-02-20T12:50:13.827Z,101702.71
2019-02-20T12:52:42.422Z,101702.71
2019-02-20T12:55:11.298Z,101704.42
2019-02-20T12:57:40.542Z,101707.28
2019-02-20T13:00:15.613Z,101702.03
2019-02-20T13:02:44.208Z,101708.05
2019-02-20T13:05:12.854Z,101702.11
2019-02-20T13:07:41.580Z,101702.50
2019-02-20T13:10:10.615Z,101700.01
2019-02-20T13:12:39.192Z,101706.40
2019-02-20T13:15:09.888Z,101706.40
2019-02-20T13:17:38.445Z,101703.38
2019-02-20T13:20:09.379Z,101698.45
2019-02-20T13:22:37.947Z,101694.44
2019-02-20T13:25:09.579Z,101698.32
2019-02-20T13:27:40.132Z,101695.24
2019-02-20T13:30:15.037Z,101695.24
2019-02-20T13:32:43.666Z,101718.03
2019-02-20T13:35:12.220Z,101707.58
2019-02-20T13:37:40.848Z,101713.64
2019-02-20T13:40:11.066Z,101710.99
2019-02-20T13:42:39.638Z,101705.13
2019-02-20T13:45:09.489Z,101711.83
2019-02-20T13:47:38.129Z,101703.58
2019-02-20T13:50:11.569Z,101705.03
2019-02-20T13:52:39.748Z,101685.48
2019-02-20T13:55:08.511Z,101705.98
2019-02-20T13:57:37.076Z,101709.47
2019-02-20T14:00:08.795Z,101714.23
2019-02-20T14:02:37.376Z,101708.83
2019-02-20T14:05:07.798Z,101706.20
2019-02-20T14:07:36.453Z,101705.77
2019-02-20T14:10:08.066Z,101700.06
2019-02-20T14:12:38.143Z,101701.64
2019-02-20T14:15:09.262Z,101707.49
2019-02-20T14:17:37.852Z,101702.80
2019-02-20T14:20:09.244Z,101700.25
2019-02-20T14:22:37.997Z,101704.55
2019-02-20T14:25:08.642Z,101705.84
2019-02-20T14:27:37.245Z,101706.23
2019-02-20T14:30:08.548Z,101710.73
2019-02-20T14:32:37.118Z,101707.80
2019-02-20T14:35:07.523Z,101706.19
2019-02-20T14:37:36.640Z,101703.73
2019-02-20T14:40:07.270Z,101703.25
2019-02-20T14:42:36.322Z,101711.39
2019-02-20T14:45:08.172Z,101708.93
2019-02-20T14:47:36.762Z,101712.36
2019-02-20T14:50:08.305Z,101712.50
2019-02-20T14:52:37.172Z,101711.72
2019-02-20T14:55:07.978Z,101719.70
2019-02-20T14:57:36.547Z,101720.31
2019-02-20T15:00:08.540Z,101722.73
2019-02-20T15:02:37.124Z,101719.53
2019-02-20T15:05:06.753Z,101717.48
2019-02-20T15:07:35.598Z,101722.50
2019-02-20T15:10:05.507Z,101721.29
2019-02-20T15:12:34.087Z,101714.65
2019-02-20T15:15:10.310Z,101721.23
2019-02-20T15:17:33.020Z,101729.04
2019-02-20T15:20:01.620Z,101723.19
2019-02-20T15:22:30.196Z,101726.84
2019-02-20T15:24:58.781Z,101739.38
2019-02-20T15:27:28.863Z,101739.38
2019-02-20T15:29:57.708Z,101738.27
2019-02-20T15:32:26.295Z,101738.27
2019-02-20T15:34:54.852Z,101745.88
2019-02-20T15:37:23.409Z,101753.17
2019-02-20T15:39:52.312Z,101746.77
2019-02-20T15:42:20.867Z,101748.06
2019-02-20T15:44:49.469Z,101748.02
2019-02-20T15:47:18.052Z,101727.55
2019-02-20T15:49:46.620Z,101743.61
2019-02-20T15:52:15.211Z,101751.17
2019-02-20T15:54:43.803Z,101760.53
2019-02-20T15:57:12.542Z,101761.50
2019-02-20T15:59:42.656Z,101761.36
2019-02-20T16:02:11.231Z,101765.58
2019-02-20T16:04:39.886Z,101761.80
2019-02-20T16:07:08.483Z,101764.11
2019-02-20T16:09:37.067Z,101761.51
2019-02-20T16:12:05.907Z,101760.86
2019-02-20T16:14:34.489Z,101773.14
2019-02-20T16:17:03.076Z,101780.20
2019-02-20T16:19:31.642Z,101777.73
2019-02-20T16:22:00.226Z,101783.08
2019-02-20T16:24:28.800Z,101783.08
2019-02-20T16:26:57.368Z,101779.34
2019-02-20T16:29:26.312Z,101779.34
2019-02-20T16:31:54.910Z,101785.77
2019-02-20T16:34:23.472Z,101785.99
2019-02-20T16:36:52.037Z,101793.39
2019-02-20T16:39:20.605Z,101793.39
2019-02-20T16:41:49.167Z,101795.42
2019-02-20T16:44:17.748Z,101795.42
2019-02-20T16:46:48.312Z,101803.22
2019-02-20T16:49:16.714Z,101803.05
2019-02-20T16:51:45.281Z,101803.05
2019-02-20T16:54:13.857Z,101797.13
2019-02-20T16:56:42.444Z,101804.98
2019-02-20T16:59:11.007Z,101804.98
2019-02-20T17:01:40.130Z,101810.11
2019-02-20T17:04:08.694Z,101810.11
2019-02-20T17:06:37.296Z,101818.62
2019-02-20T17:09:07.679Z,101821.61
2019-02-20T17:11:36.257Z,101821.61
2019-02-20T17:14:04.898Z,101833.04
2019-02-20T17:16:33.441Z,101829.63
2019-02-20T17:19:02.192Z,101837.12
2019-02-20T17:21:30.784Z,101834.22
2019-02-20T17:23:59.388Z,101837.05
2019-02-20T17:26:27.956Z,101837.05
2019-02-20T17:28:56.615Z,101836.45
2019-02-20T17:31:25.187Z,101832.70
2019-02-20T17:33:54.074Z,101842.80
2019-02-20T17:36:22.638Z,101848.77
2019-02-20T17:38:51.301Z,101848.99
2019-02-20T17:41:19.904Z,101848.99
2019-02-20T17:43:48.482Z,101852.51
2019-02-20T17:46:18.666Z,101863.11
2019-02-20T17:48:47.426Z,101853.80
2019-02-20T17:51:16.029Z,101853.80
2019-02-20T17:53:44.594Z,101862.58
2019-02-20T17:56:13.150Z,101862.58
2019-02-20T17:58:42.694Z,101863.59
2019-02-20T18:01:13.343Z,101857.22
2019-02-20T18:03:41.938Z,101857.22
2019-02-20T18:06:10.533Z,101862.77
2019-02-20T18:08:39.120Z,101859.00
2019-02-20T18:11:07.708Z,101859.00
2019-02-20T18:13:36.266Z,101862.38
2019-02-20T18:16:04.838Z,101862.38
2019-02-20T18:18:33.403Z,101863.05
2019-02-20T18:21:02.019Z,101868.36
2019-02-20T18:23:30.596Z,101868.36
2019-02-20T18:25:59.175Z,101864.19
2019-02-20T18:28:27.772Z,101864.19
2019-02-20T18:30:56.332Z,101869.12
2019-02-20T18:33:24.913Z,101874.73
2019-02-20T18:35:53.505Z,101874.06
2019-02-20T18:38:22.076Z,101886.30
2019-02-20T18:40:50.661Z,101886.30
2019-02-20T18:43:19.234Z,101887.70
2019-02-20T18:45:47.833Z,101881.02
2019-02-20T18:48:16.437Z,101886.05
2019-02-20T18:50:45.007Z,101886.05
2019-02-20T18:53:13.593Z,101881.48
2019-02-20T18:55:42.179Z,101888.59
2019-02-20T18:58:10.836Z,101887.50
2019-02-20T19:00:39.428Z,101887.50
2019-02-20T19:03:08.066Z,101898.46
2019-02-20T19:05:37.044Z,101898.46
2019-02-20T19:08:24.922Z,101904.63
2019-02-20T19:10:56.551Z,101914.17
2019-02-20T19:13:50.470Z,101914.17
2019-02-20T19:16:38.894Z,101907.27
2019-02-20T19:19:19.224Z,101903.23
2019-02-20T19:21:59.843Z,101905.14
2019-02-20T19:24:46.635Z,101907.10
2019-02-20T19:27:24.018Z,101907.10
2019-02-20T19:29:58.414Z,101904.89
2019-02-20T19:32:41.935Z,101904.89
2019-02-20T19:35:34.555Z,101906.48
2019-02-20T19:38:28.557Z,101906.72
2019-02-20T19:41:06.259Z,101907.56
2019-02-20T19:43:43.672Z,101906.12
2019-02-20T19:46:48.950Z,101906.12
2019-02-20T19:49:38.751Z,101912.93
2019-02-20T19:52:10.413Z,101910.17
2019-02-20T19:54:47.759Z,101911.04
2019-02-20T19:57:25.115Z,101913.47
2019-02-20T20:00:12.728Z,101908.42
2019-02-20T20:02:47.039Z,101910.81
2019-02-20T20:05:32.498Z,101915.42
2019-02-20T20:08:23.749Z,101909.94
2019-02-20T20:10:55.410Z,101916.34
2019-02-20T20:13:32.783Z,101920.61
2019-02-20T20:16:13.647Z,101920.61
2019-02-20T20:19:10.231Z,101911.77
2019-02-20T20:21:47.411Z,101917.27
2019-02-20T20:24:30.894Z,101910.89
2019-02-20T20:27:08.256Z,101917.20
2019-02-20T20:29:48.903Z,101917.85
2019-02-20T20:32:26.104Z,101908.88
2019-02-20T20:35:12.459Z,101914.23
2019-02-20T20:37:49.956Z,101912.67
2019-02-20T20:40:30.889Z,101914.75
2019-02-20T20:43:10.927Z,101915.59
2019-02-20T20:45:51.547Z,101909.87
2019-02-20T20:48:32.139Z,101920.44
2019-02-20T20:51:09.569Z,101925.29
2019-02-20T20:53:58.492Z,101926.11
2019-02-20T20:56:39.105Z,101926.24
2019-02-20T20:59:22.210Z,101915.36
2019-02-20T21:01:55.142Z,101922.42
2019-02-20T21:04:34.151Z,101917.81
2019-02-20T21:07:24.175Z,101921.30
2019-02-20T21:09:55.890Z,101920.38
2019-02-20T21:12:27.497Z,101913.28
2019-02-20T21:14:59.186Z,101915.16
2019-02-20T21:17:39.727Z,101905.27
2019-02-20T21:20:11.425Z,101909.08
2019-02-20T21:22:55.015Z,101911.67
2019-02-20T21:25:44.773Z,101912.80
2019-02-20T21:28:17.114Z,101914.26
2019-02-20T21:31:06.719Z,101912.23
2019-02-20T21:34:11.517Z,101910.33
2019-02-20T21:36:51.987Z,101914.14
2019-02-20T21:39:32.983Z,101915.84
2019-02-20T21:42:21.354Z,101917.59
2019-02-20T21:45:01.656Z,101914.65
2019-02-20T21:47:43.442Z,101915.38
2019-02-20T21:50:33.210Z,101911.67
2019-02-20T21:53:13.453Z,101913.09
2019-02-20T21:56:07.309Z,101915.20
2019-02-20T21:58:55.713Z,101912.99
2019-02-20T22:01:35.866Z,101914.23
2019-02-20T22:04:23.981Z,101915.03
2019-02-20T22:07:17.117Z,101919.82
2019-02-20T22:10:01.419Z,101919.70
2019-02-20T22:12:36.829Z,101921.31
2019-02-20T22:15:20.342Z,101920.30
2019-02-20T22:17:54.399Z,101915.18
2019-02-20T22:20:48.542Z,101918.27
2019-02-20T22:23:25.675Z,101918.61
2019-02-20T22:26:05.944Z,101918.26
2019-02-20T22:28:49.058Z,101926.33
2019-02-20T22:31:55.883Z,101922.08
2019-02-20T22:34:38.888Z,101919.56
2019-02-20T22:37:28.773Z,101924.38
2019-02-20T22:40:19.548Z,101926.08
2019-02-20T22:43:14.908Z,101931.44
2019-02-20T22:45:52.195Z,101937.83
2019-02-20T22:48:30.771Z,101931.55
2019-02-20T22:51:24.689Z,101930.14
2019-02-20T22:54:04.948Z,101937.12
2019-02-20T22:56:39.333Z,101941.08
2019-02-20T22:59:31.904Z,101940.09
2019-02-20T23:02:09.448Z,101945.55
2019-02-20T23:04:46.873Z,101945.66
2019-02-20T23:07:18.509Z,101941.09
2019-02-20T23:09:56.379Z,101945.37
2019-02-20T23:12:49.507Z,101943.38
2019-02-20T23:15:18.074Z,101947.07
2019-02-20T23:17:46.658Z,101950.73
2019-02-20T23:20:15.220Z,101945.67
2019-02-20T23:22:43.777Z,101949.95
2019-02-20T23:25:12.380Z,101947.55
2019-02-20T23:27:40.950Z,101952.72
2019-02-20T23:30:13.144Z,101946.33
2019-02-20T23:32:43.263Z,101954.09
2019-02-20T23:35:12.118Z,101948.72
2019-02-20T23:37:40.677Z,101951.59
2019-02-20T23:40:10.285Z,101948.83
2019-02-20T23:42:38.848Z,101949.91
2019-02-20T23:45:09.071Z,101946.20
2019-02-20T23:47:37.699Z,101949.31
2019-02-20T23:50:07.918Z,101955.61
2019-02-20T23:52:36.471Z,101955.50
2019-02-20T23:55:06.486Z,101956.20
2019-02-20T23:57:35.108Z,101959.56
